sensor_id;sensor_type;location;lat;lon;timestamp;temperature;humidity
17948;DHT22;9099;47.958;11.366;2023-06-10T00:00:23;17.70;99.90
17948;DHT22;9099;47.958;11.366;2023-06-10T00:02:50;17.70;99.90
17948;DHT22;9099;47.958;11.366;2023-06-10T00:05:17;17.70;99.90
17948;DHT22;9099;47.958;11.366;2023-06-10T00:07:46;17.60;99.90
17948;DHT22;9099;47.958;11.366;2023-06-10T00:10:13;17.50;99.90
17948;DHT22;9099;47.958;11.366;2023-06-10T00:12:42;17.50;99.90
17948;DHT22;9099;47.958;11.366;2023-06-10T00:15:10;17.50;99.90
17948;DHT22;9099;47.958;11.366;2023-06-10T00:17:37;17.40;99.90
17948;DHT22;9099;47.958;11.366;2023-06-10T00:20:06;17.40;99.90
17948;DHT22;9099;47.958;11.366;2023-06-10T00:22:34;17.50;99.90
17948;DHT22;9099;47.958;11.366;2023-06-10T00:25:01;17.40;99.90
17948;DHT22;9099;47.958;11.366;2023-06-10T00:27:29;17.40;99.90
17948;DHT22;9099;47.958;11.366;2023-06-10T00:30:02;17.30;99.90
17948;DHT22;9099;47.958;11.366;2023-06-10T00:32:29;17.40;99.90
17948;DHT22;9099;47.958;11.366;2023-06-10T00:34:56;17.40;99.90
17948;DHT22;9099;47.958;11.366;2023-06-10T00:37:23;17.40;99.90
17948;DHT22;9099;47.958;11.366;2023-06-10T00:39:50;17.40;99.90
17948;DHT22;9099;47.958;11.366;2023-06-10T00:42:17;17.40;99.90
17948;DHT22;9099;47.958;11.366;2023-06-10T00:44:44;17.40;99.90
17948;DHT22;9099;47.958;11.366;2023-06-10T00:47:13;17.40;99.90
17948;DHT22;9099;47.958;11.366;2023-06-10T00:49:40;17.30;99.90
17948;DHT22;9099;47.958;11.366;2023-06-10T00:52:08;17.30;99.90
17948;DHT22;9099;47.958;11.366;2023-06-10T00:54:36;17.30;99.90
17948;DHT22;9099;47.958;11.366;2023-06-10T00:57:04;17.30;99.90
17948;DHT22;9099;47.958;11.366;2023-06-10T00:59:32;17.30;99.90
17948;DHT22;9099;47.958;11.366;2023-06-10T01:01:59;17.30;99.90
17948;DHT22;9099;47.958;11.366;2023-06-10T01:04:29;17.30;99.90
17948;DHT22;9099;47.958;11.366;2023-06-10T01:07:02;17.20;99.90
17948;DHT22;9099;47.958;11.366;2023-06-10T01:09:45;17.20;99.90
17948;DHT22;9099;47.958;11.366;2023-06-10T01:12:20;17.10;99.90
17948;DHT22;9099;47.958;11.366;2023-06-10T01:14:50;17.20;99.90
17948;DHT22;9099;47.958;11.366;2023-06-10T01:17:17;17.10;99.90
17948;DHT22;9099;47.958;11.366;2023-06-10T01:19:53;17.00;99.90
17948;DHT22;9099;47.958;11.366;2023-06-10T01:22:23;17.00;99.90
17948;DHT22;9099;47.958;11.366;2023-06-10T01:24:51;16.90;99.90
17948;DHT22;9099;47.958;11.366;2023-06-10T01:27:21;16.80;99.90
17948;DHT22;9099;47.958;11.366;2023-06-10T01:29:54;16.70;99.90
17948;DHT22;9099;47.958;11.366;2023-06-10T01:32:29;16.70;99.90
17948;DHT22;9099;47.958;11.366;2023-06-10T01:34:59;16.60;99.90
17948;DHT22;9099;47.958;11.366;2023-06-10T01:37:31;16.60;99.90
17948;DHT22;9099;47.958;11.366;2023-06-10T01:39:59;16.50;99.90
17948;DHT22;9099;47.958;11.366;2023-06-10T01:42:27;16.40;99.90
17948;DHT22;9099;47.958;11.366;2023-06-10T01:44:54;16.40;99.90
17948;DHT22;9099;47.958;11.366;2023-06-10T01:47:21;16.40;99.90
17948;DHT22;9099;47.958;11.366;2023-06-10T01:49:48;16.40;99.90
17948;DHT22;9099;47.958;11.366;2023-06-10T01:52:15;16.30;99.90
17948;DHT22;9099;47.958;11.366;2023-06-10T01:54:44;16.30;99.90
17948;DHT22;9099;47.958;11.366;2023-06-10T01:57:10;16.30;99.90
17948;DHT22;9099;47.958;11.366;2023-06-10T01:59:37;16.20;99.90
17948;DHT22;9099;47.958;11.366;2023-06-10T02:02:04;16.20;99.90
17948;DHT22;9099;47.958;11.366;2023-06-10T02:04:31;16.10;99.90
17948;DHT22;9099;47.958;11.366;2023-06-10T02:06:58;16.10;99.90
17948;DHT22;9099;47.958;11.366;2023-06-10T02:09:29;16.00;99.90
17948;DHT22;9099;47.958;11.366;2023-06-10T02:11:58;16.00;99.90
17948;DHT22;9099;47.958;11.366;2023-06-10T02:14:24;16.00;99.90
17948;DHT22;9099;47.958;11.366;2023-06-10T02:16:51;16.00;99.90
17948;DHT22;9099;47.958;11.366;2023-06-10T02:19:21;16.00;99.90
17948;DHT22;9099;47.958;11.366;2023-06-10T02:21:48;16.00;99.90
17948;DHT22;9099;47.958;11.366;2023-06-10T02:24:16;16.00;99.90
17948;DHT22;9099;47.958;11.366;2023-06-10T02:26:43;15.90;99.90
17948;DHT22;9099;47.958;11.366;2023-06-10T02:29:12;15.90;99.90
17948;DHT22;9099;47.958;11.366;2023-06-10T02:31:38;15.90;99.90
17948;DHT22;9099;47.958;11.366;2023-06-10T02:34:06;15.90;99.90
17948;DHT22;9099;47.958;11.366;2023-06-10T02:36:33;15.90;99.90
17948;DHT22;9099;47.958;11.366;2023-06-10T02:39:01;15.80;99.90
17948;DHT22;9099;47.958;11.366;2023-06-10T02:41:28;15.90;99.90
17948;DHT22;9099;47.958;11.366;2023-06-10T02:43:55;15.90;99.90
17948;DHT22;9099;47.958;11.366;2023-06-10T02:46:23;15.90;99.90
17948;DHT22;9099;47.958;11.366;2023-06-10T02:48:50;15.80;99.90
17948;DHT22;9099;47.958;11.366;2023-06-10T02:51:17;15.80;99.90
17948;DHT22;9099;47.958;11.366;2023-06-10T02:53:44;15.80;99.90
17948;DHT22;9099;47.958;11.366;2023-06-10T02:56:11;15.80;99.90
17948;DHT22;9099;47.958;11.366;2023-06-10T02:58:38;15.70;99.90
17948;DHT22;9099;47.958;11.366;2023-06-10T03:01:05;15.70;99.90
17948;DHT22;9099;47.958;11.366;2023-06-10T03:03:33;15.70;99.90
17948;DHT22;9099;47.958;11.366;2023-06-10T03:06:02;15.70;99.90
17948;DHT22;9099;47.958;11.366;2023-06-10T03:08:29;15.70;99.90
17948;DHT22;9099;47.958;11.366;2023-06-10T03:10:56;15.60;99.90
17948;DHT22;9099;47.958;11.366;2023-06-10T03:13:23;15.60;99.90
17948;DHT22;9099;47.958;11.366;2023-06-10T03:15:50;15.60;99.90
17948;DHT22;9099;47.958;11.366;2023-06-10T03:18:17;15.50;99.90
17948;DHT22;9099;47.958;11.366;2023-06-10T03:20:45;15.40;99.90
17948;DHT22;9099;47.958;11.366;2023-06-10T03:23:12;15.30;99.90
17948;DHT22;9099;47.958;11.366;2023-06-10T03:25:39;15.20;99.90
17948;DHT22;9099;47.958;11.366;2023-06-10T03:28:06;15.20;99.90
17948;DHT22;9099;47.958;11.366;2023-06-10T03:30:33;15.20;99.90
17948;DHT22;9099;47.958;11.366;2023-06-10T03:33:00;15.20;99.90
17948;DHT22;9099;47.958;11.366;2023-06-10T03:35:26;15.20;99.90
17948;DHT22;9099;47.958;11.366;2023-06-10T03:37:55;15.30;99.90
17948;DHT22;9099;47.958;11.366;2023-06-10T03:40:22;15.30;99.90
17948;DHT22;9099;47.958;11.366;2023-06-10T03:42:48;15.30;99.90
17948;DHT22;9099;47.958;11.366;2023-06-10T03:45:16;15.40;99.90
17948;DHT22;9099;47.958;11.366;2023-06-10T03:47:43;15.40;99.90
17948;DHT22;9099;47.958;11.366;2023-06-10T03:50:10;15.20;99.90
17948;DHT22;9099;47.958;11.366;2023-06-10T03:52:38;15.20;99.90
17948;DHT22;9099;47.958;11.366;2023-06-10T03:55:07;15.10;99.90
17948;DHT22;9099;47.958;11.366;2023-06-10T03:57:34;15.10;99.90
17948;DHT22;9099;47.958;11.366;2023-06-10T04:00:01;15.10;99.90
17948;DHT22;9099;47.958;11.366;2023-06-10T04:02:32;15.10;99.90
17948;DHT22;9099;47.958;11.366;2023-06-10T04:05:00;15.10;99.90
17948;DHT22;9099;47.958;11.366;2023-06-10T04:07:27;15.10;99.90
17948;DHT22;9099;47.958;11.366;2023-06-10T04:09:53;15.10;99.90
17948;DHT22;9099;47.958;11.366;2023-06-10T04:12:22;15.20;99.90
17948;DHT22;9099;47.958;11.366;2023-06-10T04:14:49;15.30;99.90
17948;DHT22;9099;47.958;11.366;2023-06-10T04:17:17;15.40;99.90
17948;DHT22;9099;47.958;11.366;2023-06-10T04:19:43;15.50;99.90
17948;DHT22;9099;47.958;11.366;2023-06-10T04:22:11;15.60;99.90
17948;DHT22;9099;47.958;11.366;2023-06-10T04:24:38;15.70;99.90
17948;DHT22;9099;47.958;11.366;2023-06-10T04:27:05;15.80;99.90
17948;DHT22;9099;47.958;11.366;2023-06-10T04:29:33;15.90;99.90
17948;DHT22;9099;47.958;11.366;2023-06-10T04:32:00;16.00;99.90
17948;DHT22;9099;47.958;11.366;2023-06-10T04:34:27;16.10;99.90
17948;DHT22;9099;47.958;11.366;2023-06-10T04:36:54;16.00;99.90
17948;DHT22;9099;47.958;11.366;2023-06-10T04:39:22;16.00;99.90
17948;DHT22;9099;47.958;11.366;2023-06-10T04:41:49;16.00;99.90
17948;DHT22;9099;47.958;11.366;2023-06-10T04:44:16;16.10;99.90
17948;DHT22;9099;47.958;11.366;2023-06-10T04:46:44;16.10;99.90
17948;DHT22;9099;47.958;11.366;2023-06-10T04:49:11;16.20;99.90
17948;DHT22;9099;47.958;11.366;2023-06-10T04:51:39;16.30;99.90
17948;DHT22;9099;47.958;11.366;2023-06-10T04:54:06;16.40;99.90
17948;DHT22;9099;47.958;11.366;2023-06-10T04:56:33;16.40;99.90
17948;DHT22;9099;47.958;11.366;2023-06-10T04:59:00;16.50;99.90
17948;DHT22;9099;47.958;11.366;2023-06-10T05:01:27;16.60;99.90
17948;DHT22;9099;47.958;11.366;2023-06-10T05:03:55;16.80;99.90
17948;DHT22;9099;47.958;11.366;2023-06-10T05:06:22;16.90;99.90
17948;DHT22;9099;47.958;11.366;2023-06-10T05:08:49;17.10;99.90
17948;DHT22;9099;47.958;11.366;2023-06-10T05:11:16;17.20;99.90
17948;DHT22;9099;47.958;11.366;2023-06-10T05:13:43;17.30;99.90
17948;DHT22;9099;47.958;11.366;2023-06-10T05:16:10;17.40;99.90
17948;DHT22;9099;47.958;11.366;2023-06-10T05:18:37;17.60;99.90
17948;DHT22;9099;47.958;11.366;2023-06-10T05:21:05;17.70;99.90
17948;DHT22;9099;47.958;11.366;2023-06-10T05:23:33;17.80;99.90
17948;DHT22;9099;47.958;11.366;2023-06-10T05:26:00;17.90;99.90
17948;DHT22;9099;47.958;11.366;2023-06-10T05:28:27;18.00;99.90
17948;DHT22;9099;47.958;11.366;2023-06-10T05:30:53;18.20;99.90
17948;DHT22;9099;47.958;11.366;2023-06-10T05:33:20;18.20;99.90
17948;DHT22;9099;47.958;11.366;2023-06-10T05:35:47;18.30;99.90
17948;DHT22;9099;47.958;11.366;2023-06-10T05:38:15;18.50;99.90
17948;DHT22;9099;47.958;11.366;2023-06-10T05:40:42;18.60;99.90
17948;DHT22;9099;47.958;11.366;2023-06-10T05:43:09;18.80;99.90
17948;DHT22;9099;47.958;11.366;2023-06-10T05:45:37;18.80;99.90
17948;DHT22;9099;47.958;11.366;2023-06-10T05:48:05;19.00;99.90
17948;DHT22;9099;47.958;11.366;2023-06-10T05:50:34;19.20;99.90
17948;DHT22;9099;47.958;11.366;2023-06-10T05:53:04;19.30;99.90
17948;DHT22;9099;47.958;11.366;2023-06-10T05:55:33;19.40;99.90
17948;DHT22;9099;47.958;11.366;2023-06-10T05:58:01;19.40;99.90
17948;DHT22;9099;47.958;11.366;2023-06-10T06:00:28;19.30;99.90
17948;DHT22;9099;47.958;11.366;2023-06-10T06:02:55;19.40;99.90
17948;DHT22;9099;47.958;11.366;2023-06-10T06:05:22;19.60;99.90
17948;DHT22;9099;47.958;11.366;2023-06-10T06:07:49;19.70;99.90
17948;DHT22;9099;47.958;11.366;2023-06-10T06:10:17;19.90;99.90
17948;DHT22;9099;47.958;11.366;2023-06-10T06:12:47;19.90;99.90
17948;DHT22;9099;47.958;11.366;2023-06-10T06:15:14;20.00;99.90
17948;DHT22;9099;47.958;11.366;2023-06-10T06:17:40;20.10;99.90
17948;DHT22;9099;47.958;11.366;2023-06-10T06:20:08;20.20;99.90
17948;DHT22;9099;47.958;11.366;2023-06-10T06:22:35;20.20;99.90
17948;DHT22;9099;47.958;11.366;2023-06-10T06:25:02;20.40;99.90
17948;DHT22;9099;47.958;11.366;2023-06-10T06:27:29;20.50;99.90
17948;DHT22;9099;47.958;11.366;2023-06-10T06:29:57;20.60;99.90
17948;DHT22;9099;47.958;11.366;2023-06-10T06:32:25;20.80;99.90
17948;DHT22;9099;47.958;11.366;2023-06-10T06:34:53;20.90;99.90
17948;DHT22;9099;47.958;11.366;2023-06-10T06:37:21;21.10;99.90
17948;DHT22;9099;47.958;11.366;2023-06-10T06:39:48;21.10;99.90
17948;DHT22;9099;47.958;11.366;2023-06-10T06:42:15;21.20;99.90
17948;DHT22;9099;47.958;11.366;2023-06-10T06:44:42;21.10;99.90
17948;DHT22;9099;47.958;11.366;2023-06-10T06:47:10;21.30;99.90
17948;DHT22;9099;47.958;11.366;2023-06-10T06:49:37;21.40;99.90
17948;DHT22;9099;47.958;11.366;2023-06-10T06:52:05;21.50;99.90
17948;DHT22;9099;47.958;11.366;2023-06-10T06:54:32;21.60;99.90
17948;DHT22;9099;47.958;11.366;2023-06-10T06:56:59;21.60;99.90
17948;DHT22;9099;47.958;11.366;2023-06-10T06:59:25;21.80;99.90
17948;DHT22;9099;47.958;11.366;2023-06-10T07:01:52;22.00;99.90
17948;DHT22;9099;47.958;11.366;2023-06-10T07:04:21;21.90;99.90
17948;DHT22;9099;47.958;11.366;2023-06-10T07:06:49;21.80;99.90
17948;DHT22;9099;47.958;11.366;2023-06-10T07:09:15;21.80;99.90
17948;DHT22;9099;47.958;11.366;2023-06-10T07:11:42;22.10;99.90
17948;DHT22;9099;47.958;11.366;2023-06-10T07:14:09;22.20;99.90
17948;DHT22;9099;47.958;11.366;2023-06-10T07:16:36;22.60;99.90
17948;DHT22;9099;47.958;11.366;2023-06-10T07:19:03;22.80;99.90
17948;DHT22;9099;47.958;11.366;2023-06-10T07:21:31;23.10;99.90
17948;DHT22;9099;47.958;11.366;2023-06-10T07:23:59;23.00;99.90
17948;DHT22;9099;47.958;11.366;2023-06-10T07:26:26;22.90;99.90
17948;DHT22;9099;47.958;11.366;2023-06-10T07:28:53;23.00;99.90
17948;DHT22;9099;47.958;11.366;2023-06-10T07:31:20;23.10;99.90
17948;DHT22;9099;47.958;11.366;2023-06-10T07:33:47;23.10;99.90
17948;DHT22;9099;47.958;11.366;2023-06-10T07:36:13;23.10;99.90
17948;DHT22;9099;47.958;11.366;2023-06-10T07:38:42;23.20;99.90
17948;DHT22;9099;47.958;11.366;2023-06-10T07:41:09;23.40;99.90
17948;DHT22;9099;47.958;11.366;2023-06-10T07:43:36;23.40;99.90
17948;DHT22;9099;47.958;11.366;2023-06-10T07:46:04;23.50;99.90
17948;DHT22;9099;47.958;11.366;2023-06-10T07:48:31;23.60;99.90
17948;DHT22;9099;47.958;11.366;2023-06-10T07:50:58;23.90;99.90
17948;DHT22;9099;47.958;11.366;2023-06-10T07:53:25;23.90;99.90
17948;DHT22;9099;47.958;11.366;2023-06-10T07:55:53;23.80;99.90
17948;DHT22;9099;47.958;11.366;2023-06-10T07:58:20;24.00;99.90
17948;DHT22;9099;47.958;11.366;2023-06-10T08:00:47;24.30;99.90
17948;DHT22;9099;47.958;11.366;2023-06-10T08:03:14;24.40;99.90
17948;DHT22;9099;47.958;11.366;2023-06-10T08:05:41;24.20;99.90
17948;DHT22;9099;47.958;11.366;2023-06-10T08:08:08;24.30;99.90
17948;DHT22;9099;47.958;11.366;2023-06-10T08:10:35;24.50;99.90
17948;DHT22;9099;47.958;11.366;2023-06-10T08:13:03;24.80;99.90
17948;DHT22;9099;47.958;11.366;2023-06-10T08:15:30;25.10;99.90
17948;DHT22;9099;47.958;11.366;2023-06-10T08:17:57;25.40;99.90
17948;DHT22;9099;47.958;11.366;2023-06-10T08:20:24;25.50;99.90
17948;DHT22;9099;47.958;11.366;2023-06-10T08:22:51;25.80;99.90
17948;DHT22;9099;47.958;11.366;2023-06-10T08:25:18;25.70;99.90
17948;DHT22;9099;47.958;11.366;2023-06-10T08:27:47;25.60;99.90
17948;DHT22;9099;47.958;11.366;2023-06-10T08:30:15;25.60;99.90
17948;DHT22;9099;47.958;11.366;2023-06-10T08:32:42;25.30;99.90
17948;DHT22;9099;47.958;11.366;2023-06-10T08:35:09;25.30;99.90
17948;DHT22;9099;47.958;11.366;2023-06-10T08:37:36;25.00;99.90
17948;DHT22;9099;47.958;11.366;2023-06-10T08:40:04;25.20;99.90
17948;DHT22;9099;47.958;11.366;2023-06-10T08:42:34;25.40;99.90
17948;DHT22;9099;47.958;11.366;2023-06-10T08:45:05;25.50;99.90
17948;DHT22;9099;47.958;11.366;2023-06-10T08:47:35;25.70;99.90
17948;DHT22;9099;47.958;11.366;2023-06-10T08:50:04;26.00;99.90
17948;DHT22;9099;47.958;11.366;2023-06-10T08:52:35;26.00;99.90
17948;DHT22;9099;47.958;11.366;2023-06-10T08:55:04;26.30;99.90
17948;DHT22;9099;47.958;11.366;2023-06-10T08:57:31;26.40;99.90
17948;DHT22;9099;47.958;11.366;2023-06-10T08:59:58;26.30;99.90
17948;DHT22;9099;47.958;11.366;2023-06-10T09:02:25;26.20;99.90
17948;DHT22;9099;47.958;11.366;2023-06-10T09:04:56;26.40;99.90
17948;DHT22;9099;47.958;11.366;2023-06-10T09:07:23;26.60;99.90
17948;DHT22;9099;47.958;11.366;2023-06-10T09:09:50;27.00;99.90
17948;DHT22;9099;47.958;11.366;2023-06-10T09:12:19;27.20;99.90
17948;DHT22;9099;47.958;11.366;2023-06-10T09:14:46;26.90;99.90
17948;DHT22;9099;47.958;11.366;2023-06-10T09:17:13;27.20;99.90
17948;DHT22;9099;47.958;11.366;2023-06-10T09:19:40;27.30;99.90
17948;DHT22;9099;47.958;11.366;2023-06-10T09:22:09;27.50;99.90
17948;DHT22;9099;47.958;11.366;2023-06-10T09:24:37;27.90;99.90
17948;DHT22;9099;47.958;11.366;2023-06-10T09:27:06;28.10;99.90
17948;DHT22;9099;47.958;11.366;2023-06-10T09:29:45;28.20;99.90
17948;DHT22;9099;47.958;11.366;2023-06-10T09:32:12;28.10;99.90
17948;DHT22;9099;47.958;11.366;2023-06-10T09:34:39;28.50;99.90
17948;DHT22;9099;47.958;11.366;2023-06-10T09:37:06;28.70;99.90
17948;DHT22;9099;47.958;11.366;2023-06-10T09:39:35;28.70;99.90
17948;DHT22;9099;47.958;11.366;2023-06-10T09:42:16;28.60;99.90
17948;DHT22;9099;47.958;11.366;2023-06-10T09:44:49;28.50;99.90
17948;DHT22;9099;47.958;11.366;2023-06-10T09:47:20;28.20;99.90
17948;DHT22;9099;47.958;11.366;2023-06-10T09:49:48;28.50;99.90
17948;DHT22;9099;47.958;11.366;2023-06-10T09:52:21;28.50;99.90
17948;DHT22;9099;47.958;11.366;2023-06-10T09:54:49;28.30;99.90
17948;DHT22;9099;47.958;11.366;2023-06-10T09:57:18;28.10;99.90
17948;DHT22;9099;47.958;11.366;2023-06-10T09:59:45;27.90;99.90
17948;DHT22;9099;47.958;11.366;2023-06-10T10:02:14;28.20;99.90
17948;DHT22;9099;47.958;11.366;2023-06-10T10:04:41;28.20;99.90
17948;DHT22;9099;47.958;11.366;2023-06-10T10:07:08;27.90;99.90
17948;DHT22;9099;47.958;11.366;2023-06-10T10:09:36;27.60;99.90
17948;DHT22;9099;47.958;11.366;2023-06-10T10:12:09;27.40;99.90
17948;DHT22;9099;47.958;11.366;2023-06-10T10:14:37;27.30;99.90
17948;DHT22;9099;47.958;11.366;2023-06-10T10:17:07;27.20;99.90
17948;DHT22;9099;47.958;11.366;2023-06-10T10:19:40;27.20;99.90
17948;DHT22;9099;47.958;11.366;2023-06-10T10:22:14;27.10;99.90
17948;DHT22;9099;47.958;11.366;2023-06-10T10:24:46;27.10;99.90
17948;DHT22;9099;47.958;11.366;2023-06-10T10:27:19;27.20;99.90
17948;DHT22;9099;47.958;11.366;2023-06-10T10:29:48;27.10;99.90
17948;DHT22;9099;47.958;11.366;2023-06-10T10:32:18;27.00;99.90
17948;DHT22;9099;47.958;11.366;2023-06-10T10:34:50;27.00;99.90
17948;DHT22;9099;47.958;11.366;2023-06-10T10:37:20;27.00;99.90
17948;DHT22;9099;47.958;11.366;2023-06-10T10:39:47;27.10;99.90
17948;DHT22;9099;47.958;11.366;2023-06-10T10:42:14;27.00;99.90
17948;DHT22;9099;47.958;11.366;2023-06-10T10:44:44;26.90;99.90
17948;DHT22;9099;47.958;11.366;2023-06-10T10:47:12;26.90;99.90
17948;DHT22;9099;47.958;11.366;2023-06-10T10:49:43;26.70;99.90
17948;DHT22;9099;47.958;11.366;2023-06-10T10:52:12;26.60;99.90
17948;DHT22;9099;47.958;11.366;2023-06-10T10:54:43;26.40;99.90
17948;DHT22;9099;47.958;11.366;2023-06-10T10:57:15;26.40;99.90
17948;DHT22;9099;47.958;11.366;2023-06-10T10:59:55;26.70;99.90
17948;DHT22;9099;47.958;11.366;2023-06-10T11:02:41;27.40;99.90
17948;DHT22;9099;47.958;11.366;2023-06-10T11:05:10;28.40;99.90
17948;DHT22;9099;47.958;11.366;2023-06-10T11:07:38;28.70;99.90
17948;DHT22;9099;47.958;11.366;2023-06-10T11:10:07;28.50;99.90
17948;DHT22;9099;47.958;11.366;2023-06-10T11:12:42;28.90;99.90
17948;DHT22;9099;47.958;11.366;2023-06-10T11:15:19;29.10;99.90
17948;DHT22;9099;47.958;11.366;2023-06-10T11:18:08;29.20;99.90
17948;DHT22;9099;47.958;11.366;2023-06-10T11:20:56;29.50;99.90
17948;DHT22;9099;47.958;11.366;2023-06-10T11:23:39;30.00;99.90
17948;DHT22;9099;47.958;11.366;2023-06-10T11:26:14;30.50;99.90
17948;DHT22;9099;47.958;11.366;2023-06-10T11:28:42;30.70;99.90
17948;DHT22;9099;47.958;11.366;2023-06-10T11:31:29;30.60;99.90
17948;DHT22;9099;47.958;11.366;2023-06-10T11:33:58;30.20;99.90
17948;DHT22;9099;47.958;11.366;2023-06-10T11:36:25;29.90;99.90
17948;DHT22;9099;47.958;11.366;2023-06-10T11:38:55;29.60;99.90
17948;DHT22;9099;47.958;11.366;2023-06-10T11:41:23;29.60;99.90
17948;DHT22;9099;47.958;11.366;2023-06-10T11:43:50;30.10;99.90
17948;DHT22;9099;47.958;11.366;2023-06-10T11:46:17;30.70;99.90
17948;DHT22;9099;47.958;11.366;2023-06-10T11:48:50;31.10;99.90
17948;DHT22;9099;47.958;11.366;2023-06-10T11:51:18;31.40;99.90
17948;DHT22;9099;47.958;11.366;2023-06-10T11:53:45;31.40;99.90
17948;DHT22;9099;47.958;11.366;2023-06-10T11:56:12;31.30;99.90
17948;DHT22;9099;47.958;11.366;2023-06-10T11:58:43;31.20;99.90
17948;DHT22;9099;47.958;11.366;2023-06-10T12:01:11;30.80;99.90
17948;DHT22;9099;47.958;11.366;2023-06-10T12:03:45;30.10;99.90
17948;DHT22;9099;47.958;11.366;2023-06-10T12:06:13;29.70;99.90
17948;DHT22;9099;47.958;11.366;2023-06-10T12:08:41;29.10;99.90
17948;DHT22;9099;47.958;11.366;2023-06-10T12:11:09;28.80;99.90
17948;DHT22;9099;47.958;11.366;2023-06-10T12:13:36;29.00;99.90
17948;DHT22;9099;47.958;11.366;2023-06-10T12:16:06;29.60;99.90
17948;DHT22;9099;47.958;11.366;2023-06-10T12:18:34;29.90;99.90
17948;DHT22;9099;47.958;11.366;2023-06-10T12:21:01;29.90;99.90
17948;DHT22;9099;47.958;11.366;2023-06-10T12:23:30;30.10;99.90
17948;DHT22;9099;47.958;11.366;2023-06-10T12:25:57;30.50;99.90
17948;DHT22;9099;47.958;11.366;2023-06-10T12:28:26;30.50;99.90
17948;DHT22;9099;47.958;11.366;2023-06-10T12:31:06;30.20;99.90
17948;DHT22;9099;47.958;11.366;2023-06-10T12:33:33;29.70;99.90
17948;DHT22;9099;47.958;11.366;2023-06-10T12:36:00;29.40;99.90
17948;DHT22;9099;47.958;11.366;2023-06-10T12:38:27;29.00;99.90
17948;DHT22;9099;47.958;11.366;2023-06-10T12:41:01;28.60;99.90
17948;DHT22;9099;47.958;11.366;2023-06-10T12:43:31;28.30;99.90
17948;DHT22;9099;47.958;11.366;2023-06-10T12:46:08;28.00;99.90
17948;DHT22;9099;47.958;11.366;2023-06-10T12:48:35;27.80;99.90
17948;DHT22;9099;47.958;11.366;2023-06-10T12:51:02;27.60;99.90
17948;DHT22;9099;47.958;11.366;2023-06-10T12:53:31;27.60;99.90
17948;DHT22;9099;47.958;11.366;2023-06-10T12:55:59;27.40;99.90
17948;DHT22;9099;47.958;11.366;2023-06-10T12:58:27;27.30;99.90
17948;DHT22;9099;47.958;11.366;2023-06-10T13:00:54;27.10;99.90
17948;DHT22;9099;47.958;11.366;2023-06-10T13:03:22;26.90;99.90
17948;DHT22;9099;47.958;11.366;2023-06-10T13:05:49;26.70;99.90
17948;DHT22;9099;47.958;11.366;2023-06-10T13:08:16;26.90;99.90
17948;DHT22;9099;47.958;11.366;2023-06-10T13:10:43;27.10;99.90
17948;DHT22;9099;47.958;11.366;2023-06-10T13:13:11;27.00;99.90
17948;DHT22;9099;47.958;11.366;2023-06-10T13:15:40;26.90;99.90
17948;DHT22;9099;47.958;11.366;2023-06-10T13:18:07;27.20;99.90
17948;DHT22;9099;47.958;11.366;2023-06-10T13:20:34;27.80;99.90
17948;DHT22;9099;47.958;11.366;2023-06-10T13:23:01;28.30;99.90
17948;DHT22;9099;47.958;11.366;2023-06-10T13:25:28;28.70;99.90
17948;DHT22;9099;47.958;11.366;2023-06-10T13:27:55;28.60;99.90
17948;DHT22;9099;47.958;11.366;2023-06-10T13:30:24;28.30;99.90
17948;DHT22;9099;47.958;11.366;2023-06-10T13:32:51;28.50;99.90
17948;DHT22;9099;47.958;11.366;2023-06-10T13:35:18;28.80;99.90
17948;DHT22;9099;47.958;11.366;2023-06-10T13:37:45;29.00;99.90
17948;DHT22;9099;47.958;11.366;2023-06-10T13:40:12;28.80;99.90
17948;DHT22;9099;47.958;11.366;2023-06-10T13:42:39;28.60;99.90
17948;DHT22;9099;47.958;11.366;2023-06-10T13:45:07;28.20;99.90
17948;DHT22;9099;47.958;11.366;2023-06-10T13:47:36;27.90;99.90
17948;DHT22;9099;47.958;11.366;2023-06-10T13:50:04;27.60;99.90
17948;DHT22;9099;47.958;11.366;2023-06-10T13:52:31;27.50;99.90
17948;DHT22;9099;47.958;11.366;2023-06-10T13:54:57;27.60;99.90
17948;DHT22;9099;47.958;11.366;2023-06-10T13:57:24;27.70;99.90
17948;DHT22;9099;47.958;11.366;2023-06-10T13:59:51;28.10;99.90
17948;DHT22;9099;47.958;11.366;2023-06-10T14:02:18;28.60;99.90
17948;DHT22;9099;47.958;11.366;2023-06-10T14:04:46;29.00;99.90
17948;DHT22;9099;47.958;11.366;2023-06-10T14:07:14;29.00;99.90
17948;DHT22;9099;47.958;11.366;2023-06-10T14:09:42;28.80;99.90
17948;DHT22;9099;47.958;11.366;2023-06-10T14:12:09;28.60;99.90
17948;DHT22;9099;47.958;11.366;2023-06-10T14:14:36;28.20;99.90
17948;DHT22;9099;47.958;11.366;2023-06-10T14:17:03;28.00;99.90
17948;DHT22;9099;47.958;11.366;2023-06-10T14:19:30;27.70;99.90
17948;DHT22;9099;47.958;11.366;2023-06-10T14:21:59;27.30;99.90
17948;DHT22;9099;47.958;11.366;2023-06-10T14:24:26;26.90;99.90
17948;DHT22;9099;47.958;11.366;2023-06-10T14:26:52;26.60;99.90
17948;DHT22;9099;47.958;11.366;2023-06-10T14:29:19;26.30;99.90
17948;DHT22;9099;47.958;11.366;2023-06-10T14:31:46;26.00;99.90
17948;DHT22;9099;47.958;11.366;2023-06-10T14:34:13;26.10;99.90
17948;DHT22;9099;47.958;11.366;2023-06-10T14:36:40;26.00;99.90
17948;DHT22;9099;47.958;11.366;2023-06-10T14:39:08;25.80;99.90
17948;DHT22;9099;47.958;11.366;2023-06-10T14:41:35;25.60;99.90
17948;DHT22;9099;47.958;11.366;2023-06-10T14:44:02;25.50;99.90
17948;DHT22;9099;47.958;11.366;2023-06-10T14:46:29;25.50;99.90
17948;DHT22;9099;47.958;11.366;2023-06-10T14:48:56;25.80;99.90
17948;DHT22;9099;47.958;11.366;2023-06-10T14:51:24;25.60;99.90
17948;DHT22;9099;47.958;11.366;2023-06-10T14:53:51;25.60;99.90
17948;DHT22;9099;47.958;11.366;2023-06-10T14:56:19;25.60;99.90
17948;DHT22;9099;47.958;11.366;2023-06-10T14:58:46;25.70;99.90
17948;DHT22;9099;47.958;11.366;2023-06-10T15:01:13;25.80;99.90
17948;DHT22;9099;47.958;11.366;2023-06-10T15:03:40;25.70;99.90
17948;DHT22;9099;47.958;11.366;2023-06-10T15:06:07;25.60;99.90
17948;DHT22;9099;47.958;11.366;2023-06-10T15:08:34;25.50;99.90
17948;DHT22;9099;47.958;11.366;2023-06-10T15:11:01;25.40;99.90
17948;DHT22;9099;47.958;11.366;2023-06-10T15:13:29;25.30;99.90
17948;DHT22;9099;47.958;11.366;2023-06-10T15:15:56;25.10;99.90
17948;DHT22;9099;47.958;11.366;2023-06-10T15:18:23;25.30;99.90
17948;DHT22;9099;47.958;11.366;2023-06-10T15:20:50;25.70;99.90
17948;DHT22;9099;47.958;11.366;2023-06-10T15:23:17;26.10;99.90
17948;DHT22;9099;47.958;11.366;2023-06-10T15:25:43;26.20;99.90
17948;DHT22;9099;47.958;11.366;2023-06-10T15:28:12;26.10;99.90
17948;DHT22;9099;47.958;11.366;2023-06-10T15:30:40;26.20;99.90
17948;DHT22;9099;47.958;11.366;2023-06-10T15:33:07;26.10;99.90
17948;DHT22;9099;47.958;11.366;2023-06-10T15:35:34;26.30;99.90